• Join FlightAware (Why Join?)
  • Login
  • US Flag 
06:30PM EDT


 

Airport Tracker/Info


-or-


 

Live Flight TrackerFlight Track Log ✈ CSH9555 ✈ 22-Aug-2014 ✈ ZSSS / SHA - ZSAM / XMN

Flight Track Log - Related Links

Times and Time Zones

All times are in EDT time to prevent confusion due to time zone crossing. See the CSH9555 flight status page for this flight to view local times or setup timezone preferences in your user account.

Time Position Orientation Groundspeed Altitude Reporting Facility
EDT Latitude Longitude Course Direction KTS MPH feet Rate Location/Type
07:55AM 30.7197 121.0905 204° Southwest  Level Estimated
07:56AM 30.6400 121.0497 204° Southwest  Level Estimated
07:57AM 30.5593 121.0086 204° Southwest  Level Estimated
07:58AM 30.4785 120.9675 204° Southwest  Level Estimated
07:59AM 30.3978 120.9265 204° Southwest  Level Estimated
08:00AM 30.3170 120.8855 204° Southwest  Level Estimated
08:01AM 30.2362 120.8446 204° Southwest  Level Estimated
08:02AM 30.1555 120.8038 204° Southwest  Level Estimated
08:03AM 30.0746 120.7630 204° Southwest  Level Estimated
08:04AM 29.9938 120.7223 204° Southwest  Level Estimated
08:05AM 29.9130 120.6817 204° Southwest  Level Estimated
08:06AM 29.8322 120.6411 204° Southwest  Level Estimated
08:07AM 29.7513 120.6006 204° Southwest  Level Estimated
08:08AM 29.6705 120.5602 203° Southwest  Level Estimated
08:09AM 29.5896 120.5199 203° Southwest  Level Estimated
08:10AM 29.5087 120.4796 203° Southwest  Level Estimated
08:11AM 29.4278 120.4393 203° Southwest  Level Estimated
08:12AM 29.3469 120.3991 203° Southwest  Level Estimated
08:13AM 29.2660 120.3590 203° Southwest  Level Estimated
08:14AM 29.1850 120.3190 203° Southwest  Level Estimated
08:15AM 29.1041 120.2790 203° Southwest  Level Estimated
08:16AM 29.0231 120.2391 203° Southwest  Level Estimated
08:17AM 28.9422 120.1992 203° Southwest  Level Estimated
08:18AM 28.8612 120.1594 203° Southwest  Level Estimated
08:19AM 28.7802 120.1197 203° Southwest  Level Estimated
08:20AM 28.6992 120.0800 203° Southwest  Level Estimated
08:21AM 28.6182 120.0404 203° Southwest  Level Estimated
08:22AM 28.5371 120.0009 203° Southwest  Level Estimated
08:23AM 28.4561 119.9614 203° Southwest  Level Estimated
08:24AM 28.3751 119.9220 203° Southwest  Level Estimated
08:25AM 28.2940 119.8826 203° Southwest  Level Estimated
08:26AM 28.2129 119.8433 203° Southwest  Level Estimated
08:27AM 28.1318 119.8041 203° Southwest  Level Estimated
08:28AM 28.0507 119.7649 203° Southwest  Level Estimated
08:29AM 27.9696 119.7258 203° Southwest  Level Estimated
08:30AM 27.8885 119.6867 203° Southwest  Level Estimated
08:31AM 27.8074 119.6477 203° Southwest  Level Estimated
08:32AM 27.7262 119.6087 203° Southwest  Level Estimated
08:33AM 27.6451 119.5698 203° Southwest  Level Estimated
08:34AM 27.5639 119.5310 203° Southwest  Level Estimated
08:35AM 27.4828 119.4922 203° Southwest  Level Estimated
08:36AM 27.4016 119.4535 203° Southwest  Level Estimated
08:37AM 27.3204 119.4148 203° Southwest  Level Estimated
08:38AM 27.2392 119.3762 203° Southwest  Level Estimated
08:39AM 27.1580 119.3377 203° Southwest  Level Estimated
08:40AM 27.0767 119.2992 203° Southwest  Level Estimated
08:41AM 26.9955 119.2607 203° Southwest  Level Estimated
08:42AM 26.9143 119.2224 203° Southwest  Level Estimated
08:43AM 26.8330 119.1840 203° Southwest  Level Estimated
08:44AM 26.7517 119.1457 203° Southwest  Level Estimated
08:45AM 26.6705 119.1075 203° Southwest  Level Estimated
08:46AM 26.5892 119.0694 203° Southwest  Level Estimated
08:47AM 26.5079 119.0312 203° Southwest  Level Estimated
08:48AM 26.4266 118.9932 203° Southwest  Level Estimated
08:49AM 26.3453 118.9552 203° Southwest  Level Estimated
08:50AM 26.2639 118.9172 203° Southwest  Level Estimated
08:51AM 26.1826 118.8793 203° Southwest  Level Estimated
08:52AM 26.1012 118.8415 203° Southwest  Level Estimated
08:53AM 26.0199 118.8037 203° Southwest  Level Estimated
08:54AM 25.9385 118.7660 203° Southwest  Level Estimated
08:55AM 25.8571 118.7283 203° Southwest  Level Estimated
08:56AM 25.7757 118.6906 203° Southwest  Level Estimated
08:57AM 25.6944 118.6531 203° Southwest  Level Estimated
08:58AM 25.6129 118.6155 203° Southwest  Level Estimated
08:59AM 25.5315 118.5780 203° Southwest  Level Estimated
09:00AM 25.4501 118.5406 203° Southwest  Level Estimated
09:01AM 25.3687 118.5032 203° Southwest  Level Estimated
09:02AM 25.2872 118.4659 203° Southwest  Level Estimated
09:03AM 25.2058 118.4286 202° Southwest  Level Estimated
09:04AM 25.1243 118.3914 202° Southwest  Level Estimated
09:05AM 25.0429 118.3542 202° Southwest  Level Estimated
09:06AM 24.9614 118.3171 202° Southwest  Level Estimated
09:07AM 24.8799 118.2800 202° Southwest  Level Estimated
09:08AM 24.7984 118.2430 202° Southwest  Level Estimated
09:09AM 24.7169 118.2060 202° Southwest  Level Estimated
09:10AM 24.6353 118.1691 202° Southwest  Level Estimated
09:11AM 24.5538 118.1322 202° Southwest  Level Estimated